createdAt,value
2023-01-17T00:01:30.855Z,96983.09
2023-01-17T00:04:23.652Z,96991.88
2023-01-17T00:07:15.103Z,96971.69
2023-01-17T00:10:01.622Z,96967.63
2023-01-17T00:12:40.630Z,96964.06
2023-01-17T00:15:17.884Z,96966.47
2023-01-17T00:17:53.745Z,96977.22
2023-01-17T00:20:49.655Z,96978.81
2023-01-17T00:23:43.106Z,96977.56
2023-01-17T00:26:23.360Z,96969.91
2023-01-17T00:29:05.504Z,96974.22
2023-01-17T00:31:49.073Z,96970.38
2023-01-17T00:34:28.909Z,96979.28
2023-01-17T00:37:12.061Z,96973.00
2023-01-17T00:39:50.883Z,96979.09
2023-01-17T00:42:36.030Z,96973.00
2023-01-17T00:48:57.641Z,96968.63
2023-01-17T00:52:01.003Z,96954.00
2023-01-17T00:54:53.243Z,96958.69
2023-01-17T00:57:45.088Z,96966.53
2023-01-17T01:00:36.400Z,96964.31
2023-01-17T01:03:35.121Z,96966.44
2023-01-17T01:06:26.099Z,96955.34
2023-01-17T01:09:20.274Z,96957.03
2023-01-17T01:12:11.156Z,96967.72
2023-01-17T01:15:06.085Z,96979.06
2023-01-17T01:18:03.624Z,96990.37
2023-01-17T01:24:28.075Z,96991.09
2023-01-17T01:27:24.120Z,96992.25
2023-01-17T01:30:16.028Z,96987.22
2023-01-17T01:33:12.010Z,96985.25
2023-01-17T01:35:45.984Z,96993.72
2023-01-17T01:38:29.389Z,96995.41
2023-01-17T01:44:54.104Z,96991.63
2023-01-17T01:47:44.019Z,96980.66
2023-01-17T01:50:22.971Z,96968.13
2023-01-17T01:53:06.781Z,96957.75
2023-01-17T01:55:48.773Z,96945.03
2023-01-17T01:58:38.203Z,96947.22
2023-01-17T02:01:21.857Z,96942.72
2023-01-17T02:03:58.013Z,96941.12
2023-01-17T02:06:44.951Z,96942.72
2023-01-17T02:09:27.276Z,96944.19
2023-01-17T02:12:00.451Z,96943.88
2023-01-17T02:14:38.704Z,96948.56
2023-01-17T02:17:49.241Z,96947.53
2023-01-17T02:20:58.889Z,96949.94
2023-01-17T02:23:41.329Z,96956.00
2023-01-17T02:26:51.565Z,96948.16
2023-01-17T02:30:10.940Z,96942.84
2023-01-17T02:33:36.451Z,96947.66
2023-01-17T02:36:51.060Z,96939.59
2023-01-17T02:39:39.013Z,96934.78
2023-01-17T02:45:47.399Z,96921.09
2023-01-17T02:48:40.039Z,96908.13
2023-01-17T02:51:20.866Z,96891.41
2023-01-17T02:54:29.954Z,96893.81
2023-01-17T02:57:38.172Z,96893.19
2023-01-17T03:00:40.959Z,96870.16
2023-01-17T03:03:40.896Z,96881.34
2023-01-17T03:06:40.104Z,96874.47
2023-01-17T03:09:18.687Z,96863.28
2023-01-17T03:11:59.478Z,96864.72
2023-01-17T03:14:37.813Z,96862.63
2023-01-17T03:17:18.538Z,96857.50
2023-01-17T03:19:49.524Z,96852.06
2023-01-17T03:22:30.934Z,96858.03
2023-01-17T03:25:11.105Z,96848.75
2023-01-17T03:27:59.150Z,96846.75
2023-01-17T03:30:32.490Z,96837.22
2023-01-17T03:33:12.687Z,96826.22
2023-01-17T03:35:50.665Z,96818.25
2023-01-17T03:38:35.645Z,96817.94
2023-01-17T03:44:37.847Z,96834.78
2023-01-17T03:47:15.153Z,96823.63
2023-01-17T03:49:53.574Z,96825.63
2023-01-17T03:52:29.575Z,96818.25
2023-01-17T03:55:03.021Z,96813.66
2023-01-17T03:57:42.369Z,96817.56
2023-01-17T04:00:19.210Z,96823.50
2023-01-17T04:02:58.783Z,96814.72
2023-01-17T04:05:40.896Z,96813.25
2023-01-17T04:08:29.058Z,96816.44
2023-01-17T04:10:58.169Z,96820.22
2023-01-17T04:13:41.193Z,96815.94
2023-01-17T04:16:22.938Z,96815.72
2023-01-17T04:19:03.727Z,96814.91
2023-01-17T04:21:35.391Z,96822.97
2023-01-17T04:24:11.433Z,96822.00
2023-01-17T04:26:42.681Z,96821.41
2023-01-17T04:29:27.487Z,96824.00
2023-01-17T04:32:07.929Z,96826.62
2023-01-17T04:34:45.592Z,96822.00
2023-01-17T04:37:25.331Z,96835.31
2023-01-17T04:40:00.470Z,96826.81
2023-01-17T04:42:32.248Z,96825.03
2023-01-17T04:48:41.923Z,96822.19
2023-01-17T04:51:20.345Z,96826.81
2023-01-17T04:54:03.878Z,96833.09
2023-01-17T04:56:39.722Z,96821.63
2023-01-17T04:59:15.204Z,96835.12
2023-01-17T05:01:54.911Z,96828.47
2023-01-17T05:04:39.978Z,96834.22
2023-01-17T05:07:19.112Z,96831.37
2023-01-17T05:09:52.701Z,96834.75
2023-01-17T05:12:29.377Z,96829.63
2023-01-17T05:15:07.882Z,96833.09
2023-01-17T05:17:49.365Z,96834.53
2023-01-17T05:20:29.464Z,96831.59
2023-01-17T05:23:00.429Z,96832.97
2023-01-17T05:25:32.211Z,96845.09
2023-01-17T05:28:02.581Z,96840.94
2023-01-17T05:30:32.261Z,96838.19
2023-01-17T05:33:03.779Z,96844.87
2023-01-17T05:35:34.204Z,96845.09
2023-01-17T05:38:11.784Z,96846.94
2023-01-17T05:40:46.894Z,96852.13
2023-01-17T05:43:14.158Z,96852.44
2023-01-17T05:45:41.586Z,96863.94
2023-01-17T05:48:09.361Z,96863.44
2023-01-17T05:50:38.307Z,96875.66
2023-01-17T05:53:08.888Z,96884.75
2023-01-17T05:55:36.675Z,96885.84
2023-01-17T05:58:04.887Z,96887.34
2023-01-17T06:00:32.323Z,96887.94
2023-01-17T06:03:00.606Z,96902.72
2023-01-17T06:05:28.713Z,96899.59
2023-01-17T06:07:56.622Z,96902.50
2023-01-17T06:10:24.542Z,96905.87
2023-01-17T06:13:01.108Z,96903.31
2023-01-17T06:15:28.437Z,96906.13
2023-01-17T06:17:55.638Z,96902.22
2023-01-17T06:20:22.631Z,96907.63
2023-01-17T06:22:50.207Z,96917.34
2023-01-17T06:25:17.220Z,96912.88
2023-01-17T06:27:44.296Z,96913.41
2023-01-17T06:30:11.945Z,96912.38
2023-01-17T06:32:38.924Z,96925.78
2023-01-17T06:35:06.280Z,96934.03
2023-01-17T06:37:33.565Z,96938.44
2023-01-17T06:40:00.584Z,96948.16
2023-01-17T06:42:27.592Z,96947.00
2023-01-17T06:44:54.847Z,96954.84
2023-01-17T06:47:21.860Z,96954.84
2023-01-17T06:49:48.845Z,96959.34
2023-01-17T06:52:16.305Z,96971.81
2023-01-17T06:54:43.329Z,96975.75
2023-01-17T06:57:10.307Z,96977.22
2023-01-17T06:59:37.749Z,96977.03
2023-01-17T07:02:04.806Z,96987.16
2023-01-17T07:04:31.851Z,96982.53
2023-01-17T07:06:59.199Z,96993.31
2023-01-17T07:09:26.606Z,96986.94
2023-01-17T07:11:59.631Z,96994.91
2023-01-17T07:14:26.949Z,96993.62
2023-01-17T07:16:54.686Z,97006.06
2023-01-17T07:19:22.495Z,97010.44
2023-01-17T07:21:54.179Z,97011.09
2023-01-17T07:24:21.751Z,97017.97
2023-01-17T07:26:50.118Z,97021.94
2023-01-17T07:29:18.195Z,97027.31
2023-01-17T07:31:45.756Z,97033.25
2023-01-17T07:34:12.773Z,97046.63
2023-01-17T07:36:43.060Z,97051.94
2023-01-17T07:39:10.548Z,97059.00
2023-01-17T07:41:41.299Z,97065.56
2023-01-17T07:44:10.882Z,97076.00
2023-01-17T07:46:37.904Z,97076.34
2023-01-17T07:49:04.997Z,97086.50
2023-01-17T07:51:32.322Z,97095.72
2023-01-17T07:53:59.306Z,97091.72
2023-01-17T07:56:26.295Z,97096.66
2023-01-17T07:58:53.625Z,97104.69
2023-01-17T08:01:20.693Z,97100.09
2023-01-17T08:03:51.303Z,97107.72
2023-01-17T08:06:23.931Z,97098.47
2023-01-17T08:08:55.039Z,97103.63
2023-01-17T08:11:22.016Z,97106.94
2023-01-17T08:13:49.213Z,97103.13
2023-01-17T08:16:16.602Z,97114.28
2023-01-17T08:18:43.633Z,97117.34
2023-01-17T08:21:16.700Z,97116.56
2023-01-17T08:23:48.065Z,97110.38
2023-01-17T08:26:21.348Z,97109.69
2023-01-17T08:29:01.224Z,97123.41
2023-01-17T08:31:30.511Z,97129.88
2023-01-17T08:33:58.300Z,97131.72
2023-01-17T08:36:25.875Z,97135.66
2023-01-17T08:38:53.531Z,97134.53
2023-01-17T08:41:22.453Z,97139.66
2023-01-17T08:43:51.205Z,97138.56
2023-01-17T08:46:18.960Z,97148.81
2023-01-17T08:48:46.616Z,97151.97
2023-01-17T08:51:13.782Z,97153.62
2023-01-17T08:53:40.907Z,97143.72
2023-01-17T08:56:09.561Z,97146.25
2023-01-17T08:58:36.712Z,97144.72
2023-01-17T09:01:06.158Z,97137.72
2023-01-17T09:03:34.524Z,97137.53
2023-01-17T09:06:07.790Z,97144.03
2023-01-17T09:08:35.919Z,97154.28
2023-01-17T09:11:08.161Z,97161.81
2023-01-17T09:13:36.607Z,97157.53
2023-01-17T09:16:05.113Z,97160.19
2023-01-17T09:18:36.478Z,97152.78
2023-01-17T09:21:15.375Z,97151.25
2023-01-17T09:23:43.343Z,97152.22
2023-01-17T09:26:25.377Z,97162.69
2023-01-17T09:28:52.774Z,97176.09
2023-01-17T09:31:21.930Z,97174.75
2023-01-17T09:33:50.419Z,97187.41
2023-01-17T09:36:17.875Z,97182.06
2023-01-17T09:38:45.539Z,97188.25
2023-01-17T09:41:54.500Z,97196.94
2023-01-17T09:44:52.211Z,97197.50
2023-01-17T09:47:36.127Z,97206.19
2023-01-17T09:50:31.499Z,97209.84
2023-01-17T09:53:06.614Z,97206.19
2023-01-17T09:55:42.644Z,97212.25
2023-01-17T09:58:20.284Z,97217.16
2023-01-17T10:00:59.742Z,97224.59
2023-01-17T10:03:47.154Z,97229.50
2023-01-17T10:06:17.136Z,97238.25
2023-01-17T10:09:16.590Z,97235.28
2023-01-17T10:11:46.683Z,97234.84
2023-01-17T10:14:32.707Z,97234.84
2023-01-17T10:17:32.129Z,97230.72
2023-01-17T10:20:08.772Z,97229.06
2023-01-17T10:23:05.465Z,97231.12
2023-01-17T10:25:42.549Z,97235.03
2023-01-17T10:28:16.788Z,97233.69
2023-01-17T10:30:51.450Z,97236.69
2023-01-17T10:33:20.673Z,97224.09
2023-01-17T10:36:00.711Z,97221.41
2023-01-17T10:38:36.863Z,97213.19
2023-01-17T10:41:41.391Z,97209.09
2023-01-17T10:44:43.808Z,97202.91
2023-01-17T10:47:11.067Z,97188.50
2023-01-17T10:49:44.883Z,97194.59
2023-01-17T10:52:33.639Z,97202.69
2023-01-17T10:55:40.021Z,97203.59
2023-01-17T10:58:16.413Z,97193.34
2023-01-17T11:01:00.060Z,97184.38
2023-01-17T11:03:28.791Z,97186.16
2023-01-17T11:06:26.489Z,97173.34
2023-01-17T11:08:57.016Z,97155.28
2023-01-17T11:11:33.407Z,97165.19
2023-01-17T11:14:07.849Z,97166.47
2023-01-17T11:16:37.239Z,97160.09
2023-01-17T11:19:13.675Z,97156.28
2023-01-17T11:21:52.343Z,97144.50
2023-01-17T11:24:28.264Z,97142.19
2023-01-17T11:26:55.483Z,97144.50
2023-01-17T11:29:39.805Z,97137.69
2023-01-17T11:32:36.478Z,97131.59
2023-01-17T11:35:12.610Z,97124.84
2023-01-17T11:38:06.851Z,97123.12
2023-01-17T11:40:40.215Z,97115.41
2023-01-17T11:43:18.505Z,97108.12
2023-01-17T11:46:07.058Z,97121.50
2023-01-17T11:48:36.954Z,97131.50
2023-01-17T11:51:16.810Z,97128.66
2023-01-17T11:53:48.146Z,97138.94
2023-01-17T11:56:20.893Z,97150.84
2023-01-17T11:58:48.042Z,97153.62
2023-01-17T12:01:15.422Z,97153.03
2023-01-17T12:04:20.910Z,97159.50
2023-01-17T12:07:08.625Z,97159.84
2023-01-17T12:09:43.490Z,97152.78
2023-01-17T12:12:44.681Z,97150.97
2023-01-17T12:15:18.036Z,97154.34
2023-01-17T12:18:09.084Z,97153.75
2023-01-17T12:20:46.620Z,97161.16
2023-01-17T12:23:19.711Z,97156.88
2023-01-17T12:25:47.029Z,97157.22
2023-01-17T12:28:19.977Z,97149.72
2023-01-17T12:31:17.477Z,97146.56
2023-01-17T12:33:57.321Z,97142.03
2023-01-17T12:36:34.495Z,97150.03
2023-01-17T12:39:13.163Z,97145.97
2023-01-17T12:42:01.214Z,97142.50
2023-01-17T12:44:52.933Z,97147.03
2023-01-17T12:47:21.427Z,97133.91
2023-01-17T12:50:05.317Z,97135.94
2023-01-17T12:52:51.205Z,97129.38
2023-01-17T12:55:32.293Z,97125.28
2023-01-17T12:58:04.140Z,97134.84
2023-01-17T13:00:34.984Z,97134.25
2023-01-17T13:03:48.517Z,97132.63
2023-01-17T13:06:25.037Z,97128.19
2023-01-17T13:08:58.189Z,97124.97
2023-01-17T13:11:36.055Z,97131.53
2023-01-17T13:14:06.408Z,97137.75
2023-01-17T13:16:57.931Z,97138.22
2023-01-17T13:19:37.752Z,97143.50
2023-01-17T13:22:09.353Z,97147.28
2023-01-17T13:24:48.791Z,97138.34
2023-01-17T13:27:21.652Z,97133.69
2023-01-17T13:30:15.344Z,97128.19
2023-01-17T13:32:54.363Z,97126.25
2023-01-17T13:35:50.970Z,97122.34
2023-01-17T13:38:36.920Z,97119.13
2023-01-17T13:41:17.460Z,97111.09
2023-01-17T13:44:06.038Z,97105.13
2023-01-17T13:47:02.754Z,97101.78
2023-01-17T13:49:29.824Z,97102.13
2023-01-17T13:52:12.347Z,97099.50
2023-01-17T13:55:05.474Z,97097.34
2023-01-17T13:57:41.924Z,97088.03
2023-01-17T14:00:21.519Z,97075.75
2023-01-17T14:02:50.776Z,97068.56
2023-01-17T14:05:20.577Z,97065.59
2023-01-17T14:08:14.444Z,97055.22
2023-01-17T14:10:46.282Z,97042.66
2023-01-17T14:13:37.482Z,97032.75
2023-01-17T14:16:27.591Z,97023.94
2023-01-17T14:18:55.767Z,97032.91
2023-01-17T14:21:32.624Z,97024.94
2023-01-17T14:24:03.872Z,97026.56
2023-01-17T14:26:36.593Z,97013.81
2023-01-17T14:29:45.258Z,97008.91
2023-01-17T14:32:18.990Z,97006.91
2023-01-17T14:34:49.636Z,97003.91
2023-01-17T14:37:22.831Z,96987.81
2023-01-17T14:39:50.995Z,96990.28
2023-01-17T14:42:22.275Z,97000.91
2023-01-17T14:44:52.640Z,96993.03
2023-01-17T14:47:20.345Z,96991.66
2023-01-17T14:49:47.486Z,96977.41
2023-01-17T14:52:17.749Z,96969.97
2023-01-17T14:54:52.330Z,96965.63
2023-01-17T14:57:19.231Z,96970.31
2023-01-17T14:59:46.855Z,96971.16
2023-01-17T15:02:18.520Z,96967.69
2023-01-17T15:04:54.579Z,96973.16
2023-01-17T15:07:23.875Z,96968.97
2023-01-17T15:09:51.089Z,96976.25
2023-01-17T15:12:19.547Z,96974.53
2023-01-17T15:14:46.950Z,96979.84
2023-01-17T15:17:26.437Z,96971.00
2023-01-17T15:20:03.699Z,96975.66
2023-01-17T15:22:31.009Z,96967.78
2023-01-17T15:24:59.608Z,96960.16
2023-01-17T15:27:27.093Z,96959.09
2023-01-17T15:29:57.403Z,96952.66
2023-01-17T15:32:28.044Z,96954.53
2023-01-17T15:34:55.270Z,96956.19
2023-01-17T15:37:28.893Z,96952.53
2023-01-17T15:40:19.855Z,96945.63
2023-01-17T15:42:51.484Z,96944.22
2023-01-17T15:45:27.889Z,96948.84
2023-01-17T15:47:55.065Z,96938.13
2023-01-17T15:50:26.593Z,96933.12
2023-01-17T15:53:05.551Z,96926.31
2023-01-17T15:55:38.597Z,96925.41
2023-01-17T15:58:23.013Z,96924.44
2023-01-17T16:00:50.487Z,96917.16
2023-01-17T16:03:31.819Z,96915.00
2023-01-17T16:06:01.177Z,96915.03
2023-01-17T16:08:40.000Z,96913.34
2023-01-17T16:11:10.605Z,96916.66
2023-01-17T16:13:39.131Z,96913.13
2023-01-17T16:16:24.055Z,96912.75
2023-01-17T16:18:59.534Z,96911.56
2023-01-17T16:21:29.824Z,96913.34
2023-01-17T16:23:59.895Z,96907.06
2023-01-17T16:26:29.122Z,96897.75
2023-01-17T16:28:56.670Z,96897.16
2023-01-17T16:31:23.888Z,96889.63
2023-01-17T16:33:51.656Z,96885.34
2023-01-17T16:36:21.156Z,96881.03
2023-01-17T16:38:50.632Z,96888.28
2023-01-17T16:41:18.154Z,96881.75
2023-01-17T16:43:45.520Z,96867.56
2023-01-17T16:46:12.633Z,96862.47
2023-01-17T16:48:39.781Z,96871.75
2023-01-17T16:51:07.840Z,96862.56
2023-01-17T16:53:35.965Z,96849.59
2023-01-17T16:56:11.816Z,96851.38
2023-01-17T16:58:40.049Z,96859.09
2023-01-17T17:01:16.488Z,96863.59
2023-01-17T17:03:44.972Z,96847.75
2023-01-17T17:06:13.310Z,96848.34
2023-01-17T17:08:40.539Z,96848.91
2023-01-17T17:11:16.740Z,96839.00
2023-01-17T17:13:46.015Z,96840.78
2023-01-17T17:16:29.923Z,96838.16
2023-01-17T17:18:59.577Z,96828.31
2023-01-17T17:21:28.197Z,96820.56
2023-01-17T17:23:57.980Z,96815.69
2023-01-17T17:26:28.932Z,96807.22
2023-01-17T17:28:57.262Z,96807.56
2023-01-17T17:31:24.398Z,96804.94
2023-01-17T17:33:51.543Z,96798.44
2023-01-17T17:36:19.180Z,96795.91
2023-01-17T17:38:53.035Z,96794.13
2023-01-17T17:41:23.788Z,96791.84
2023-01-17T17:43:52.195Z,96785.78
2023-01-17T17:46:21.072Z,96779.59
2023-01-17T17:48:49.070Z,96775.28
2023-01-17T17:51:29.003Z,96767.78
2023-01-17T17:54:03.510Z,96752.22
2023-01-17T17:56:31.104Z,96743.03
2023-01-17T17:58:59.998Z,96729.72
2023-01-17T18:01:27.762Z,96717.59
2023-01-17T18:03:57.736Z,96703.41
2023-01-17T18:06:24.824Z,96697.34
2023-01-17T18:08:52.396Z,96698.31
2023-01-17T18:11:22.638Z,96696.66
2023-01-17T18:13:51.370Z,96684.87
2023-01-17T18:16:35.539Z,96679.88
2023-01-17T18:19:04.377Z,96686.78
2023-01-17T18:21:36.829Z,96671.09
2023-01-17T18:24:13.548Z,96664.75
2023-01-17T18:26:52.722Z,96661.09
2023-01-17T18:29:22.007Z,96665.13
2023-01-17T18:31:50.449Z,96657.50
2023-01-17T18:34:27.108Z,96652.03
2023-01-17T18:36:54.811Z,96652.38
2023-01-17T18:39:24.684Z,96642.72
2023-01-17T18:41:52.248Z,96638.59
2023-01-17T18:44:22.247Z,96627.13
2023-01-17T18:46:52.448Z,96627.13
2023-01-17T18:49:20.085Z,96615.00
2023-01-17T18:51:50.727Z,96605.38
2023-01-17T18:54:19.832Z,96606.19
2023-01-17T18:56:47.615Z,96602.37
2023-01-17T18:59:19.641Z,96600.00
2023-01-17T19:01:47.285Z,96586.78
2023-01-17T19:04:15.915Z,96580.88
2023-01-17T19:06:46.897Z,96579.53
2023-01-17T19:09:16.264Z,96576.91
2023-01-17T19:11:44.983Z,96570.50
2023-01-17T19:14:12.829Z,96564.53
2023-01-17T19:16:41.509Z,96556.78
2023-01-17T19:19:12.021Z,96553.09
2023-01-17T19:21:39.562Z,96548.94
2023-01-17T19:24:07.234Z,96532.06
2023-01-17T19:26:34.393Z,96531.59
2023-01-17T19:29:05.116Z,96516.22
2023-01-17T19:31:37.201Z,96505.75
2023-01-17T19:34:04.653Z,96503.03
2023-01-17T19:36:34.425Z,96492.09
2023-01-17T19:39:05.538Z,96480.22
2023-01-17T19:41:40.388Z,96481.38
2023-01-17T19:44:09.514Z,96467.38
2023-01-17T19:46:37.082Z,96453.72
2023-01-17T19:49:06.512Z,96445.25
2023-01-17T19:51:34.489Z,96440.16
2023-01-17T19:54:02.837Z,96426.87
2023-01-17T19:56:30.251Z,96426.06
2023-01-17T19:59:01.170Z,96418.69
2023-01-17T20:01:30.941Z,96426.87
2023-01-17T20:03:59.235Z,96427.72
2023-01-17T20:06:29.536Z,96417.28
2023-01-17T20:08:57.182Z,96420.25
2023-01-17T20:11:26.334Z,96425.09
2023-01-17T20:13:56.136Z,96425.22
2023-01-17T20:16:25.181Z,96426.06
2023-01-17T20:18:53.072Z,96428.06
2023-01-17T20:21:23.345Z,96433.06
2023-01-17T20:23:51.744Z,96429.59
2023-01-17T20:26:22.657Z,96420.25
2023-01-17T20:28:54.001Z,96425.19
2023-01-17T20:31:23.728Z,96423.75
2023-01-17T20:33:53.028Z,96428.63
2023-01-17T20:36:22.440Z,96426.50
2023-01-17T20:38:50.381Z,96438.53
2023-01-17T20:41:21.754Z,96435.31
2023-01-17T20:43:51.277Z,96413.69
2023-01-17T20:46:20.797Z,96398.03
2023-01-17T20:48:50.708Z,96391.28
2023-01-17T20:51:18.636Z,96377.75
2023-01-17T20:53:50.466Z,96383.81
2023-01-17T20:56:18.100Z,96383.09
2023-01-17T20:58:46.146Z,96368.47
2023-01-17T21:01:19.209Z,96357.44
2023-01-17T21:03:49.270Z,96354.94
2023-01-17T21:06:16.600Z,96337.38
2023-01-17T21:08:45.634Z,96336.31
2023-01-17T21:11:15.534Z,96322.03
2023-01-17T21:13:43.127Z,96325.75
2023-01-17T21:16:13.468Z,96331.88
2023-01-17T21:18:40.940Z,96337.69
2023-01-17T21:21:12.454Z,96324.88
2023-01-17T21:23:41.641Z,96319.19
2023-01-17T21:26:12.101Z,96304.00
2023-01-17T21:28:43.398Z,96301.16
2023-01-17T21:31:20.521Z,96289.75
2023-01-17T21:33:47.965Z,96285.50
2023-01-17T21:36:16.325Z,96270.06
2023-01-17T21:38:43.487Z,96280.16
2023-01-17T21:41:10.534Z,96276.81
2023-01-17T21:43:37.810Z,96282.28
2023-01-17T21:46:06.728Z,96278.59
2023-01-17T21:48:33.738Z,96284.53
2023-01-17T21:51:05.727Z,96283.81
2023-01-17T21:53:35.089Z,96279.44
2023-01-17T21:56:22.827Z,96270.66
2023-01-17T21:58:54.462Z,96267.72
2023-01-17T22:01:23.633Z,96276.97
2023-01-17T22:03:59.081Z,96271.75
2023-01-17T22:06:32.022Z,96270.94
2023-01-17T22:08:59.501Z,96279.59
2023-01-17T22:11:27.407Z,96258.09
2023-01-17T22:13:54.422Z,96251.09
2023-01-17T22:16:24.366Z,96247.53
2023-01-17T22:18:52.004Z,96249.56
2023-01-17T22:21:24.156Z,96245.66
2023-01-17T22:23:53.921Z,96238.41
2023-01-17T22:26:23.883Z,96230.34
2023-01-17T22:28:50.877Z,96246.59
2023-01-17T22:31:21.229Z,96261.06
2023-01-17T22:33:53.329Z,96262.75
2023-01-17T22:36:20.868Z,96260.84
2023-01-17T22:38:48.395Z,96281.37
2023-01-17T22:41:19.977Z,96286.69
2023-01-17T22:43:49.420Z,96292.41
2023-01-17T22:46:22.466Z,96296.09
2023-01-17T22:48:49.848Z,96300.84
2023-01-17T22:51:19.000Z,96305.72
2023-01-17T22:53:49.964Z,96297.63
2023-01-17T22:56:20.169Z,96293.00
2023-01-17T22:58:48.867Z,96280.53
2023-01-17T23:01:19.009Z,96289.06
2023-01-17T23:03:52.177Z,96299.28
2023-01-17T23:06:22.986Z,96312.56
2023-01-17T23:08:52.822Z,96324.44
2023-01-17T23:11:45.238Z,96333.38
2023-01-17T23:14:15.754Z,96332.25
2023-01-17T23:17:02.549Z,96332.28
2023-01-17T23:19:34.251Z,96337.50
2023-01-17T23:22:21.096Z,96340.09
2023-01-17T23:24:56.721Z,96345.09
2023-01-17T23:27:43.795Z,96335.37
2023-01-17T23:30:25.119Z,96353.19
2023-01-17T23:32:55.273Z,96340.59
2023-01-17T23:35:27.016Z,96336.81
2023-01-17T23:38:13.136Z,96327.63
2023-01-17T23:40:41.369Z,96336.19
2023-01-17T23:43:23.661Z,96329.31
2023-01-17T23:45:52.675Z,96329.06
2023-01-17T23:48:20.665Z,96344.75
2023-01-17T23:50:48.352Z,96345.00
2023-01-17T23:53:22.463Z,96348.06
2023-01-17T23:55:51.816Z,96362.69
2023-01-17T23:58:20.976Z,96362.81
